createdAt,value
2022-09-24T00:01:53.154Z,13.50
2022-09-24T00:04:21.963Z,13.50
2022-09-24T00:06:50.033Z,13.50
2022-09-24T00:09:21.941Z,13.40
2022-09-24T00:11:52.380Z,13.40
2022-09-24T00:14:20.926Z,13.40
2022-09-24T00:16:49.674Z,13.40
2022-09-24T00:19:19.230Z,13.40
2022-09-24T00:21:47.327Z,13.40
2022-09-24T00:24:37.828Z,13.40
2022-09-24T00:27:06.427Z,13.40
2022-09-24T00:29:35.804Z,13.40
2022-09-24T00:32:05.487Z,13.30
2022-09-24T00:34:35.270Z,13.30
2022-09-24T00:37:03.497Z,13.30
2022-09-24T00:39:31.611Z,13.30
2022-09-24T00:41:59.611Z,13.30
2022-09-24T00:44:54.879Z,13.30
2022-09-24T00:47:35.987Z,13.30
2022-09-24T00:50:18.183Z,13.20
2022-09-24T00:52:51.027Z,13.20
2022-09-24T00:55:21.122Z,13.20
2022-09-24T00:57:52.206Z,13.20
2022-09-24T01:00:20.289Z,13.20
2022-09-24T01:02:51.353Z,13.20
2022-09-24T01:05:21.098Z,13.10
2022-09-24T01:07:49.182Z,13.10
2022-09-24T01:10:39.177Z,13.10
2022-09-24T01:13:18.205Z,13.10
2022-09-24T01:15:51.423Z,13.10
2022-09-24T01:18:28.218Z,13.00
2022-09-24T01:21:21.298Z,13.00
2022-09-24T01:24:34.078Z,13.10
2022-09-24T01:27:07.258Z,13.10
2022-09-24T01:29:47.093Z,13.00
2022-09-24T01:32:20.260Z,13.00
2022-09-24T01:34:53.016Z,13.00
2022-09-24T01:37:25.181Z,13.00
2022-09-24T01:39:55.524Z,13.00
2022-09-24T01:42:25.060Z,12.90
2022-09-24T01:44:55.988Z,12.90
2022-09-24T01:47:34.396Z,12.90
2022-09-24T01:50:04.181Z,12.90
2022-09-24T01:52:36.639Z,12.90
2022-09-24T01:55:09.030Z,12.90
2022-09-24T01:57:43.073Z,12.90
2022-09-24T02:00:16.412Z,13.00
2022-09-24T02:02:49.090Z,12.90
2022-09-24T02:05:24.169Z,12.90
2022-09-24T02:07:59.376Z,12.90
2022-09-24T02:10:32.399Z,12.80
2022-09-24T02:13:05.131Z,12.80
2022-09-24T02:15:38.373Z,12.90
2022-09-24T02:18:09.612Z,12.80
2022-09-24T02:20:41.006Z,12.90
2022-09-24T02:23:11.755Z,12.90
2022-09-24T02:25:44.172Z,12.90
2022-09-24T02:28:12.208Z,12.90
2022-09-24T02:30:49.779Z,12.90
2022-09-24T02:33:36.048Z,12.90
2022-09-24T02:36:04.381Z,13.00
2022-09-24T02:38:32.457Z,13.00
2022-09-24T02:41:00.541Z,13.00
2022-09-24T02:43:28.566Z,13.00
2022-09-24T02:45:57.939Z,13.00
2022-09-24T02:48:25.963Z,13.10
2022-09-24T02:50:53.971Z,13.10
2022-09-24T02:53:22.023Z,13.10
2022-09-24T02:55:50.070Z,13.00
2022-09-24T02:58:18.062Z,13.00
2022-09-24T03:06:08.658Z,13.10
2022-09-24T03:08:36.860Z,13.10
2022-09-24T03:11:05.231Z,13.00
2022-09-24T03:13:33.268Z,13.10
2022-09-24T03:16:01.435Z,13.10
2022-09-24T03:18:29.467Z,13.10
2022-09-24T03:20:57.970Z,13.10
2022-09-24T03:23:27.606Z,13.00
2022-09-24T03:25:58.386Z,13.00
2022-09-24T03:28:27.054Z,13.10
2022-09-24T03:31:00.275Z,13.10
2022-09-24T03:33:29.628Z,13.00
2022-09-24T03:35:58.884Z,13.00
2022-09-24T03:38:29.259Z,13.00
2022-09-24T03:40:57.826Z,13.00
2022-09-24T03:43:26.283Z,13.00
2022-09-24T03:45:55.345Z,13.10
2022-09-24T03:48:24.561Z,13.00
2022-09-24T03:50:52.866Z,13.00
2022-09-24T03:53:21.525Z,13.00
2022-09-24T03:55:55.266Z,13.00
2022-09-24T03:58:23.662Z,13.00
2022-09-24T04:00:53.598Z,13.00
2022-09-24T04:03:22.277Z,13.00
2022-09-24T04:05:51.330Z,13.00
2022-09-24T04:08:24.701Z,12.90
2022-09-24T04:10:55.345Z,12.90
2022-09-24T04:13:23.373Z,12.90
2022-09-24T04:15:51.832Z,12.90
2022-09-24T04:18:20.189Z,12.90
2022-09-24T04:28:31.250Z,12.90
2022-09-24T04:30:59.486Z,12.90
2022-09-24T04:33:28.015Z,12.90
2022-09-24T04:35:56.078Z,12.90
2022-09-24T04:38:24.103Z,12.90
2022-09-24T04:40:52.246Z,12.90
2022-09-24T04:43:20.293Z,12.90
2022-09-24T04:45:49.733Z,12.90
2022-09-24T04:48:17.768Z,12.90
2022-09-24T04:50:46.496Z,12.90
2022-09-24T04:53:14.783Z,12.90
2022-09-24T04:55:43.006Z,12.90
2022-09-24T04:58:11.359Z,12.90
2022-09-24T05:00:39.544Z,12.90
2022-09-24T05:03:09.096Z,13.00
2022-09-24T05:05:37.218Z,13.00
2022-09-24T05:08:05.273Z,13.00
2022-09-24T05:10:33.657Z,13.00
2022-09-24T05:13:02.364Z,13.00
2022-09-24T05:15:30.602Z,13.00
2022-09-24T05:17:58.855Z,13.00
2022-09-24T05:20:28.305Z,13.10
2022-09-24T05:22:56.285Z,13.00
2022-09-24T05:25:24.680Z,13.00
2022-09-24T05:27:52.885Z,13.00
2022-09-24T05:30:22.350Z,13.00
2022-09-24T05:32:52.396Z,13.00
2022-09-24T05:35:21.116Z,13.00
2022-09-24T05:37:53.419Z,13.00
2022-09-24T05:40:54.411Z,13.00
2022-09-24T05:43:22.553Z,13.10
2022-09-24T05:45:51.017Z,13.10
2022-09-24T05:48:19.067Z,13.00
2022-09-24T05:50:47.067Z,13.00
2022-09-24T05:53:16.443Z,13.10
2022-09-24T05:55:44.613Z,13.10
2022-09-24T05:58:12.753Z,13.10
2022-09-24T06:00:41.015Z,13.10
2022-09-24T06:03:13.736Z,13.10
2022-09-24T06:05:46.394Z,13.10
2022-09-24T06:08:16.868Z,13.10
2022-09-24T06:10:47.411Z,13.10
2022-09-24T06:13:18.968Z,13.10
2022-09-24T06:15:47.334Z,13.10
2022-09-24T06:18:15.484Z,13.10
2022-09-24T06:20:44.418Z,13.10
2022-09-24T06:23:12.618Z,13.00
2022-09-24T06:25:41.996Z,13.10
2022-09-24T06:28:10.011Z,13.10
2022-09-24T06:30:39.622Z,13.10
2022-09-24T06:33:09.751Z,13.00
2022-09-24T06:35:38.625Z,13.00
2022-09-24T06:38:07.801Z,13.00
2022-09-24T06:48:18.855Z,13.10
2022-09-24T06:50:47.674Z,13.10
2022-09-24T06:53:16.044Z,13.10
2022-09-24T06:55:45.158Z,13.10
2022-09-24T07:07:02.166Z,13.10
2022-09-24T07:09:31.768Z,13.10
2022-09-24T07:12:05.376Z,13.10
2022-09-24T07:14:33.408Z,13.10
2022-09-24T07:17:01.543Z,13.10
2022-09-24T07:19:29.561Z,13.10
2022-09-24T07:21:57.795Z,13.10
2022-09-24T07:24:25.848Z,13.10
2022-09-24T07:26:55.288Z,13.10
2022-09-24T07:29:23.975Z,13.10
2022-09-24T07:31:52.017Z,13.10
2022-09-24T07:34:20.216Z,13.10
2022-09-24T07:36:48.751Z,13.10
2022-09-24T07:39:16.860Z,13.10
2022-09-24T07:41:44.862Z,13.10
2022-09-24T07:44:14.696Z,13.20
2022-09-24T07:46:42.787Z,13.20
2022-09-24T07:49:10.808Z,13.20
2022-09-24T07:51:40.919Z,13.20
2022-09-24T07:54:12.749Z,13.20
2022-09-24T07:56:44.470Z,13.20
2022-09-24T07:59:13.957Z,13.20
2022-09-24T08:01:42.063Z,13.20
2022-09-24T08:04:11.587Z,13.20
2022-09-24T08:06:43.645Z,13.30
2022-09-24T08:09:16.833Z,13.30
2022-09-24T08:11:45.173Z,13.30
2022-09-24T08:14:14.623Z,13.30
2022-09-24T08:16:42.598Z,13.30
2022-09-24T08:19:14.191Z,13.30
2022-09-24T08:21:43.626Z,13.30
2022-09-24T08:24:11.724Z,13.30
2022-09-24T08:26:39.839Z,13.30
2022-09-24T08:29:07.841Z,13.30
2022-09-24T08:31:37.329Z,13.30
2022-09-24T08:34:07.384Z,13.30
2022-09-24T08:36:37.410Z,13.30
2022-09-24T08:39:12.623Z,13.40
2022-09-24T08:41:53.740Z,13.40
2022-09-24T08:44:46.214Z,13.40
2022-09-24T08:47:27.109Z,13.40
2022-09-24T08:50:08.196Z,13.40
2022-09-24T08:52:53.400Z,13.40
2022-09-24T08:55:26.957Z,13.40
2022-09-24T08:58:01.842Z,13.40
2022-09-24T09:00:36.855Z,13.50
2022-09-24T09:03:15.039Z,13.50
2022-09-24T09:05:55.177Z,13.50
2022-09-24T09:08:54.965Z,13.50
2022-09-24T09:11:29.335Z,13.50
2022-09-24T09:14:00.197Z,13.50
2022-09-24T09:16:32.032Z,13.50
2022-09-24T09:19:12.711Z,13.50
2022-09-24T09:21:42.873Z,13.50
2022-09-24T09:24:20.519Z,13.60
2022-09-24T09:26:54.589Z,13.60
2022-09-24T09:29:24.129Z,13.60
2022-09-24T09:32:04.635Z,13.50
2022-09-24T09:34:48.871Z,13.50
2022-09-24T09:37:28.189Z,13.50
2022-09-24T09:40:07.641Z,13.50
2022-09-24T09:42:37.356Z,13.50
2022-09-24T09:45:27.658Z,13.60
2022-09-24T09:47:57.678Z,13.60
2022-09-24T09:50:31.582Z,13.60
2022-09-24T09:52:59.628Z,13.60
2022-09-24T09:55:29.312Z,13.70
2022-09-24T09:58:11.239Z,13.70
2022-09-24T10:00:39.483Z,13.70
2022-09-24T10:03:07.717Z,13.60
2022-09-24T10:05:37.243Z,13.70
2022-09-24T10:08:05.321Z,13.60
2022-09-24T10:10:33.409Z,13.60
2022-09-24T10:13:09.849Z,13.70
2022-09-24T10:15:50.190Z,13.60
2022-09-24T10:18:31.210Z,13.60
2022-09-24T10:21:03.415Z,13.70
2022-09-24T10:23:37.222Z,13.70
2022-09-24T10:26:06.380Z,13.70
2022-09-24T10:29:08.303Z,13.70
2022-09-24T10:31:38.761Z,13.80
2022-09-24T10:34:19.134Z,13.80
2022-09-24T10:36:53.900Z,13.80
2022-09-24T10:39:23.311Z,13.80
2022-09-24T10:41:52.975Z,13.80
2022-09-24T10:44:22.684Z,13.80
2022-09-24T10:47:05.579Z,13.80
2022-09-24T10:49:48.052Z,13.90
2022-09-24T10:52:36.200Z,13.90
2022-09-24T10:55:15.034Z,13.90
2022-09-24T10:57:51.494Z,13.90
2022-09-24T11:00:21.938Z,14.00
2022-09-24T11:03:24.472Z,14.10
2022-09-24T11:05:55.407Z,14.20
2022-09-24T11:08:37.403Z,14.20
2022-09-24T11:11:22.622Z,14.20
2022-09-24T11:14:01.724Z,14.20
2022-09-24T11:16:56.201Z,14.20
2022-09-24T11:19:40.305Z,14.30
2022-09-24T11:22:14.043Z,14.40
2022-09-24T11:24:53.489Z,14.40
2022-09-24T11:27:49.738Z,14.40
2022-09-24T11:30:21.000Z,14.40
2022-09-24T11:33:10.661Z,14.40
2022-09-24T11:36:11.149Z,14.40
2022-09-24T11:38:53.784Z,14.40
2022-09-24T11:41:35.105Z,14.50
2022-09-24T11:44:25.736Z,14.60
2022-09-24T11:47:11.097Z,14.60
2022-09-24T11:49:57.567Z,14.50
2022-09-24T12:00:17.847Z,14.70
2022-09-24T12:02:50.935Z,14.70
2022-09-24T12:05:27.843Z,14.70
2022-09-24T12:08:00.273Z,14.70
2022-09-24T12:10:34.848Z,14.70
2022-09-24T12:13:12.634Z,14.70
2022-09-24T12:15:49.701Z,14.70
2022-09-24T12:18:22.598Z,14.70
2022-09-24T12:20:54.126Z,14.70
2022-09-24T12:23:28.147Z,14.80
2022-09-24T12:25:58.576Z,14.80
2022-09-24T12:28:51.247Z,14.80
2022-09-24T12:31:47.517Z,14.80
2022-09-24T12:34:24.696Z,14.90
2022-09-24T12:37:00.077Z,15.00
2022-09-24T12:39:33.856Z,15.00
2022-09-24T12:42:04.575Z,15.10
2022-09-24T12:56:51.732Z,15.20
2022-09-24T12:59:29.445Z,15.20
2022-09-24T13:02:14.949Z,15.20
2022-09-24T13:04:49.005Z,15.20
2022-09-24T13:07:31.234Z,15.30
2022-09-24T13:10:13.298Z,15.20
2022-09-24T13:12:41.415Z,15.30
2022-09-24T13:15:28.627Z,15.30
2022-09-24T13:18:19.406Z,15.30
2022-09-24T13:21:08.200Z,15.30
2022-09-24T13:23:47.506Z,15.30
2022-09-24T13:26:29.177Z,15.20
2022-09-24T13:28:59.352Z,15.30
2022-09-24T13:31:40.259Z,15.30
2022-09-24T13:34:18.904Z,15.40
2022-09-24T13:36:52.020Z,15.40
2022-09-24T13:39:25.529Z,15.40
2022-09-24T13:42:00.812Z,15.40
2022-09-24T13:44:34.494Z,15.40
2022-09-24T13:47:13.133Z,15.30
2022-09-24T13:49:45.795Z,15.30
2022-09-24T13:52:19.661Z,15.30
2022-09-24T13:54:53.309Z,15.30
2022-09-24T13:57:27.186Z,15.20
2022-09-24T14:00:15.604Z,15.10
2022-09-24T14:02:53.997Z,15.00
2022-09-24T14:05:23.097Z,15.00
2022-09-24T14:08:04.785Z,14.80
2022-09-24T14:10:33.754Z,14.80
2022-09-24T14:13:03.531Z,14.70
2022-09-24T14:15:31.570Z,14.70
2022-09-24T14:18:01.108Z,14.60
2022-09-24T14:20:34.206Z,14.60
2022-09-24T14:23:04.624Z,14.50
2022-09-24T14:25:36.187Z,14.40
2022-09-24T14:28:06.025Z,14.40
2022-09-24T14:30:37.391Z,14.40
2022-09-24T14:33:13.699Z,14.30
2022-09-24T14:35:46.717Z,14.30
2022-09-24T14:38:18.030Z,14.30
2022-09-24T14:40:48.452Z,14.20
2022-09-24T14:43:21.810Z,14.10
2022-09-24T14:45:51.295Z,14.00
2022-09-24T14:48:30.087Z,14.00
2022-09-24T14:50:58.201Z,14.00
2022-09-24T14:53:29.653Z,14.00
2022-09-24T14:55:58.522Z,13.90
2022-09-24T14:58:39.665Z,13.90
2022-09-24T15:01:16.270Z,13.90
2022-09-24T15:03:50.620Z,13.80
2022-09-24T15:06:22.394Z,13.70
2022-09-24T15:08:58.151Z,13.70
2022-09-24T15:11:28.819Z,13.70
2022-09-24T15:14:01.792Z,13.70
2022-09-24T15:16:32.681Z,13.60
2022-09-24T15:19:17.489Z,13.60
2022-09-24T15:21:46.248Z,13.60
2022-09-24T15:24:14.347Z,13.50
2022-09-24T15:26:45.671Z,13.40
2022-09-24T15:29:24.635Z,13.30
2022-09-24T15:31:53.278Z,13.20
2022-09-24T15:34:22.787Z,13.20
2022-09-24T15:36:55.440Z,13.20
2022-09-24T15:39:26.138Z,13.20
2022-09-24T15:41:54.241Z,13.20
2022-09-24T15:44:26.253Z,13.10
2022-09-24T15:46:58.210Z,13.10
2022-09-24T15:49:27.709Z,13.10
2022-09-24T15:52:03.312Z,13.10
2022-09-24T15:54:34.355Z,13.10
2022-09-24T15:57:02.880Z,13.10
2022-09-24T15:59:30.921Z,13.10
2022-09-24T16:02:02.585Z,13.00
2022-09-24T16:04:32.092Z,13.10
2022-09-24T16:07:00.246Z,13.10
2022-09-24T16:09:28.267Z,13.10
2022-09-24T16:11:57.596Z,13.10
2022-09-24T16:14:25.751Z,13.10
2022-09-24T16:16:55.701Z,13.20
2022-09-24T16:19:24.033Z,13.20
2022-09-24T16:21:53.427Z,13.20
2022-09-24T16:24:21.519Z,13.20
2022-09-24T16:26:49.587Z,13.20
2022-09-24T16:29:18.121Z,13.20
2022-09-24T16:31:46.882Z,13.20
2022-09-24T16:34:15.039Z,13.20
2022-09-24T16:36:43.098Z,13.20
2022-09-24T16:39:12.780Z,13.20
2022-09-24T16:41:40.860Z,13.30
2022-09-24T16:44:09.662Z,13.40
2022-09-24T16:46:37.782Z,13.40
2022-09-24T16:49:06.064Z,13.40
2022-09-24T16:51:34.231Z,13.50
2022-09-24T16:54:02.262Z,13.50
2022-09-24T16:56:31.676Z,13.50
2022-09-24T16:58:59.789Z,13.50
2022-09-24T17:01:27.965Z,13.60
2022-09-24T17:03:57.412Z,13.60
2022-09-24T17:07:28.522Z,13.60
2022-09-24T17:11:00.267Z,13.60
2022-09-24T17:13:33.116Z,13.60
2022-09-24T17:16:02.772Z,13.60
2022-09-24T17:18:30.955Z,13.60
2022-09-24T17:21:01.842Z,13.60
2022-09-24T17:23:30.371Z,13.60
2022-09-24T17:26:03.433Z,13.60
2022-09-24T17:28:35.189Z,13.50
2022-09-24T17:31:04.028Z,13.50
2022-09-24T17:33:48.431Z,13.50
2022-09-24T17:36:16.971Z,13.50
2022-09-24T17:38:44.992Z,13.50
2022-09-24T17:41:14.835Z,13.40
2022-09-24T17:43:44.204Z,13.40
2022-09-24T17:46:14.919Z,13.40
2022-09-24T17:48:45.469Z,13.40
2022-09-24T17:51:15.996Z,13.30
2022-09-24T17:53:44.611Z,13.30
2022-09-24T17:56:14.610Z,13.30
2022-09-24T17:58:46.881Z,13.30
2022-09-24T18:01:17.745Z,13.30
2022-09-24T18:03:46.694Z,13.30
2022-09-24T18:06:15.866Z,13.20
2022-09-24T18:08:45.723Z,13.20
2022-09-24T18:11:15.728Z,13.20
2022-09-24T18:13:46.065Z,13.20
2022-09-24T18:16:15.702Z,13.10
2022-09-24T18:18:44.721Z,13.20
2022-09-24T18:21:14.680Z,13.20
2022-09-24T18:23:43.193Z,13.10
2022-09-24T18:26:13.185Z,13.10
2022-09-24T18:28:42.311Z,13.10
2022-09-24T18:31:11.885Z,13.00
2022-09-24T18:33:42.373Z,13.00
2022-09-24T18:36:13.215Z,13.00
2022-09-24T18:38:41.557Z,13.00
2022-09-24T18:41:12.849Z,13.00
2022-09-24T18:43:41.885Z,13.00
2022-09-24T18:46:12.897Z,12.90
2022-09-24T18:48:42.033Z,12.90
2022-09-24T18:51:17.323Z,12.80
2022-09-24T18:53:45.705Z,12.90
2022-09-24T18:56:13.742Z,12.90
2022-09-24T18:58:42.282Z,12.90
2022-09-24T19:01:11.869Z,12.90
2022-09-24T19:03:40.000Z,12.90
2022-09-24T19:06:10.442Z,12.90
2022-09-24T19:08:38.494Z,12.80
2022-09-24T19:11:09.246Z,12.80
2022-09-24T19:13:38.718Z,12.80
2022-09-24T19:16:08.850Z,12.80
2022-09-24T19:18:38.879Z,12.70
2022-09-24T19:21:08.089Z,12.70
2022-09-24T19:23:40.238Z,12.80
2022-09-24T19:26:09.945Z,12.70
2022-09-24T19:28:40.917Z,12.70
2022-09-24T19:31:14.306Z,12.70
2022-09-24T19:33:44.230Z,12.70
2022-09-24T19:36:13.210Z,12.70
2022-09-24T19:38:42.434Z,12.70
2022-09-24T19:41:13.915Z,12.70
2022-09-24T19:43:43.695Z,12.60
2022-09-24T19:46:14.648Z,12.60
2022-09-24T19:48:46.169Z,12.60
2022-09-24T19:51:16.374Z,12.60
2022-09-24T19:53:45.145Z,12.60
2022-09-24T19:56:14.236Z,12.60
2022-09-24T19:58:42.344Z,12.60
2022-09-24T20:01:16.312Z,12.70
2022-09-24T20:03:47.119Z,12.70
2022-09-24T20:06:17.079Z,12.60
2022-09-24T20:08:46.175Z,12.60
2022-09-24T20:11:19.376Z,12.70
2022-09-24T20:13:47.826Z,12.60
2022-09-24T20:16:19.600Z,12.70
2022-09-24T20:18:50.084Z,12.70
2022-09-24T20:21:19.563Z,12.70
2022-09-24T20:23:51.703Z,12.70
2022-09-24T20:26:37.309Z,12.70
2022-09-24T20:29:09.175Z,12.60
2022-09-24T20:31:37.473Z,12.60
2022-09-24T20:34:06.840Z,12.50
2022-09-24T20:36:35.280Z,12.60
2022-09-24T20:39:03.961Z,12.50
2022-09-24T20:41:32.055Z,12.50
2022-09-24T20:44:00.147Z,12.50
2022-09-24T20:46:29.508Z,12.50
2022-09-24T20:48:59.921Z,12.50
2022-09-24T20:51:33.605Z,12.50
2022-09-24T20:54:02.690Z,12.50
2022-09-24T20:56:31.508Z,12.50
2022-09-24T20:59:00.960Z,12.50
2022-09-24T21:01:29.125Z,12.50
2022-09-24T21:03:58.283Z,12.50
2022-09-24T21:06:26.464Z,12.50
2022-09-24T21:08:55.863Z,12.50
2022-09-24T21:11:26.507Z,12.50
2022-09-24T21:13:56.282Z,12.50
2022-09-24T21:16:28.248Z,12.50
2022-09-24T21:18:56.908Z,12.50
2022-09-24T21:21:27.354Z,12.50
2022-09-24T21:23:58.806Z,12.40
2022-09-24T21:26:28.619Z,12.40
2022-09-24T21:29:00.297Z,12.40
2022-09-24T21:31:30.575Z,12.40
2022-09-24T21:33:59.283Z,12.40
2022-09-24T21:36:29.661Z,12.40
2022-09-24T21:39:00.894Z,12.40
2022-09-24T21:41:31.251Z,12.40
2022-09-24T21:44:03.182Z,12.40
2022-09-24T21:46:31.883Z,12.40
2022-09-24T21:49:01.055Z,12.30
2022-09-24T21:51:30.127Z,12.30
2022-09-24T21:54:01.765Z,12.30
2022-09-24T21:56:31.277Z,12.30
2022-09-24T21:58:59.968Z,12.30
2022-09-24T22:01:30.381Z,12.30
2022-09-24T22:04:00.397Z,12.30
2022-09-24T22:06:30.146Z,12.30
2022-09-24T22:09:05.171Z,12.20
2022-09-24T22:11:34.563Z,12.20
2022-09-24T22:14:03.387Z,12.20
2022-09-24T22:16:33.820Z,12.20
2022-09-24T22:19:06.121Z,12.20
2022-09-24T22:21:34.995Z,12.20
2022-09-24T22:24:05.092Z,12.10
2022-09-24T22:26:33.171Z,12.10
2022-09-24T22:29:01.266Z,12.10
2022-09-24T22:31:30.882Z,12.10
2022-09-24T22:34:16.504Z,12.10
2022-09-24T22:36:44.788Z,12.10
2022-09-24T22:39:14.216Z,12.10
2022-09-24T22:41:43.374Z,12.00
2022-09-24T22:44:12.471Z,12.00
2022-09-24T22:46:41.842Z,12.00
2022-09-24T22:49:10.875Z,11.90
2022-09-24T22:51:39.609Z,11.90
2022-09-24T22:54:08.890Z,11.90
2022-09-24T22:56:38.526Z,11.90
2022-09-24T22:59:06.882Z,11.90
2022-09-24T23:01:36.573Z,11.90
2022-09-24T23:04:04.858Z,11.90
2022-09-24T23:06:34.675Z,11.90
2022-09-24T23:09:03.103Z,11.90
2022-09-24T23:11:32.833Z,11.90
2022-09-24T23:14:03.985Z,11.90
2022-09-24T23:16:34.288Z,11.90
2022-09-24T23:19:04.967Z,11.80
2022-09-24T23:21:35.260Z,11.70
2022-09-24T23:24:08.196Z,11.70
2022-09-24T23:26:36.769Z,11.70
2022-09-24T23:29:06.929Z,11.70
2022-09-24T23:31:37.009Z,11.60
2022-09-24T23:34:07.556Z,11.50
2022-09-24T23:36:36.327Z,11.50
2022-09-24T23:39:05.920Z,11.50
2022-09-24T23:41:34.002Z,11.50
2022-09-24T23:44:02.468Z,11.50
2022-09-24T23:46:35.059Z,11.40
2022-09-24T23:49:03.538Z,11.40
2022-09-24T23:51:31.568Z,11.30
2022-09-24T23:53:59.983Z,11.30
2022-09-24T23:56:28.505Z,11.30
2022-09-24T23:58:57.675Z,11.30
